createdAt,value
2019-05-29T00:00:31.081Z,12.50
2019-05-29T00:03:03.099Z,12.54
2019-05-29T00:05:35.047Z,12.50
2019-05-29T00:08:08.114Z,12.39
2019-05-29T00:10:41.193Z,12.39
2019-05-29T00:13:14.386Z,12.39
2019-05-29T00:15:46.503Z,12.38
2019-05-29T00:18:18.672Z,12.35
2019-05-29T00:20:50.684Z,12.39
2019-05-29T00:23:22.657Z,12.33
2019-05-29T00:25:54.633Z,12.26
2019-05-29T00:28:26.601Z,12.22
2019-05-29T00:30:58.560Z,12.24
2019-05-29T00:33:30.598Z,12.18
2019-05-29T00:36:02.585Z,12.05
2019-05-29T00:38:34.566Z,12.03
2019-05-29T00:41:06.775Z,12.08
2019-05-29T00:43:38.790Z,12.10
2019-05-29T00:46:11.388Z,12.10
2019-05-29T00:48:43.421Z,12.02
2019-05-29T00:51:15.357Z,12.04
2019-05-29T00:53:47.359Z,11.99
2019-05-29T00:56:19.281Z,11.92
2019-05-29T00:58:51.246Z,11.95
2019-05-29T01:01:23.183Z,11.95
2019-05-29T01:03:55.155Z,11.87
2019-05-29T01:06:27.116Z,11.86
2019-05-29T01:08:59.103Z,11.82
2019-05-29T01:11:31.057Z,11.75
2019-05-29T01:14:03.173Z,11.73
2019-05-29T01:16:35.139Z,11.78
2019-05-29T01:19:25.459Z,11.74
2019-05-29T01:21:57.596Z,11.62
2019-05-29T01:24:29.767Z,11.62
2019-05-29T01:27:01.738Z,11.63
2019-05-29T01:29:33.683Z,11.56
2019-05-29T01:32:05.620Z,11.62
2019-05-29T01:34:37.611Z,11.60
2019-05-29T01:37:09.594Z,11.54
2019-05-29T01:39:41.553Z,11.55
2019-05-29T01:42:13.518Z,11.48
2019-05-29T01:44:45.473Z,11.39
2019-05-29T01:47:17.477Z,11.34
2019-05-29T01:49:49.431Z,11.25
2019-05-29T01:52:21.896Z,11.28
2019-05-29T01:54:55.439Z,11.21
2019-05-29T01:57:28.021Z,11.27
2019-05-29T02:00:00.069Z,11.33
2019-05-29T02:02:32.043Z,11.39
2019-05-29T02:05:04.172Z,11.37
2019-05-29T02:07:36.150Z,11.37
2019-05-29T02:10:08.216Z,11.32
2019-05-29T02:12:40.181Z,11.33
2019-05-29T02:15:23.733Z,11.32
2019-05-29T02:17:46.306Z,11.39
2019-05-29T02:20:19.131Z,11.34
2019-05-29T02:22:51.059Z,11.34
2019-05-29T02:25:24.246Z,11.33
2019-05-29T02:27:56.689Z,11.36
2019-05-29T02:30:30.898Z,11.31
2019-05-29T02:33:02.564Z,11.25
2019-05-29T02:35:34.505Z,11.29
2019-05-29T02:38:06.465Z,11.23
2019-05-29T02:40:38.415Z,11.20
2019-05-29T02:43:10.384Z,11.12
2019-05-29T02:45:53.766Z,11.22
2019-05-29T02:48:16.190Z,11.19
2019-05-29T02:50:48.153Z,11.13
2019-05-29T02:53:20.237Z,11.14
2019-05-29T02:55:52.164Z,11.15
2019-05-29T02:58:25.817Z,11.19
2019-05-29T03:00:58.010Z,11.21
2019-05-29T03:03:37.977Z,11.15
2019-05-29T03:06:04.103Z,11.15
2019-05-29T03:08:36.082Z,11.12
2019-05-29T03:11:08.061Z,11.12
2019-05-29T03:13:40.064Z,11.21
2019-05-29T03:16:13.051Z,11.18
2019-05-29T03:18:45.379Z,11.18
2019-05-29T03:21:17.321Z,11.18
2019-05-29T03:23:49.296Z,11.23
2019-05-29T03:26:24.739Z,11.28
2019-05-29T03:28:55.146Z,11.33
2019-05-29T03:31:30.959Z,11.33
2019-05-29T03:34:01.032Z,11.27
2019-05-29T03:36:39.290Z,11.27
2019-05-29T03:39:06.856Z,11.31
2019-05-29T03:41:39.179Z,11.28
2019-05-29T03:44:11.224Z,11.33
2019-05-29T03:46:45.955Z,11.34
2019-05-29T03:49:17.097Z,11.28
2019-05-29T03:51:49.037Z,11.28
2019-05-29T03:54:21.067Z,11.22
2019-05-29T03:56:52.999Z,11.18
2019-05-29T03:59:26.581Z,11.23
2019-05-29T04:01:58.725Z,11.23
2019-05-29T04:04:31.359Z,11.18
2019-05-29T04:07:03.858Z,11.15
2019-05-29T04:09:37.272Z,11.15
2019-05-29T04:12:10.545Z,11.33
2019-05-29T04:14:42.501Z,11.33
2019-05-29T04:17:14.576Z,11.34
2019-05-29T04:19:46.567Z,11.44
2019-05-29T04:22:21.960Z,11.58
2019-05-29T04:24:54.217Z,11.57
2019-05-29T04:27:27.860Z,11.69
2019-05-29T04:30:01.825Z,11.70
2019-05-29T04:32:34.247Z,11.65
2019-05-29T04:35:06.802Z,11.76
2019-05-29T04:37:39.795Z,11.75
2019-05-29T04:40:12.101Z,11.80
2019-05-29T04:42:44.025Z,11.81
2019-05-29T04:45:16.036Z,11.84
2019-05-29T04:47:47.990Z,11.75
2019-05-29T04:50:20.055Z,11.84
2019-05-29T04:52:52.044Z,11.82
2019-05-29T04:55:24.029Z,11.86
2019-05-29T04:57:56.012Z,11.90
2019-05-29T05:00:29.036Z,11.91
2019-05-29T05:03:01.048Z,12.02
2019-05-29T05:05:33.296Z,12.23
2019-05-29T05:08:05.257Z,12.39
2019-05-29T05:10:41.026Z,12.49
2019-05-29T05:13:12.772Z,12.62
2019-05-29T05:15:45.943Z,12.69
2019-05-29T05:18:18.026Z,12.65
2019-05-29T05:20:49.985Z,12.65
2019-05-29T05:23:21.953Z,12.67
2019-05-29T05:25:53.920Z,12.65
2019-05-29T05:28:25.863Z,12.77
2019-05-29T05:30:57.898Z,12.81
2019-05-29T05:33:30.413Z,12.91
2019-05-29T05:36:02.486Z,13.03
2019-05-29T05:38:34.711Z,13.01
2019-05-29T05:41:06.787Z,13.11
2019-05-29T05:43:39.026Z,13.23
2019-05-29T05:46:11.148Z,13.32
2019-05-29T05:48:43.074Z,13.51
2019-05-29T05:51:15.048Z,13.59
2019-05-29T05:53:47.058Z,13.61
2019-05-29T05:56:19.012Z,13.66
2019-05-29T05:58:51.010Z,13.62
2019-05-29T06:01:22.952Z,13.68
2019-05-29T06:03:54.968Z,13.94
2019-05-29T06:06:26.903Z,14.15
2019-05-29T06:08:58.862Z,14.28
2019-05-29T06:11:32.084Z,14.26
2019-05-29T06:14:04.253Z,14.22
2019-05-29T06:16:36.483Z,14.15
2019-05-29T06:19:08.582Z,14.10
2019-05-29T06:21:41.161Z,14.13
2019-05-29T06:24:13.131Z,14.19
2019-05-29T06:26:45.084Z,14.42
2019-05-29T06:29:17.044Z,14.61
2019-05-29T06:31:49.018Z,14.63
2019-05-29T06:34:20.986Z,14.60
2019-05-29T06:36:52.954Z,14.55
2019-05-29T06:39:24.948Z,14.50
2019-05-29T06:41:56.902Z,14.60
2019-05-29T06:44:28.870Z,14.51
2019-05-29T06:47:00.826Z,14.59
2019-05-29T06:49:33.839Z,14.65
2019-05-29T06:52:09.115Z,14.66
2019-05-29T06:54:40.066Z,14.74
2019-05-29T06:57:12.043Z,14.81
2019-05-29T06:59:44.746Z,14.81
2019-05-29T07:02:16.799Z,14.81
2019-05-29T07:04:48.794Z,14.83
2019-05-29T07:07:20.733Z,14.70
2019-05-29T07:09:52.702Z,14.64
2019-05-29T07:12:24.680Z,14.66
2019-05-29T07:14:56.645Z,14.69
2019-05-29T07:17:28.594Z,14.63
2019-05-29T07:20:03.951Z,14.65
2019-05-29T07:22:34.486Z,14.62
2019-05-29T07:25:06.453Z,14.49
2019-05-29T07:27:38.810Z,14.47
2019-05-29T07:30:11.176Z,14.48
2019-05-29T07:32:49.586Z,14.52
2019-05-29T07:35:17.007Z,14.51
2019-05-29T07:37:48.977Z,14.61
2019-05-29T07:40:21.237Z,14.64
2019-05-29T07:42:56.456Z,14.83
2019-05-29T07:45:27.076Z,15.16
2019-05-29T07:47:59.043Z,15.61
2019-05-29T07:50:31.053Z,15.88
2019-05-29T07:53:03.027Z,16.20
2019-05-29T07:55:35.014Z,16.47
2019-05-29T07:58:06.961Z,16.85
2019-05-29T08:01:02.640Z,17.05
2019-05-29T08:03:12.787Z,17.37
2019-05-29T08:05:47.959Z,17.62
2019-05-29T08:08:18.676Z,17.60
2019-05-29T08:10:50.682Z,17.63
2019-05-29T08:13:22.635Z,17.72
2019-05-29T08:16:02.768Z,17.65
2019-05-29T08:18:28.506Z,17.68
2019-05-29T08:21:00.510Z,17.76
2019-05-29T08:23:32.481Z,17.74
2019-05-29T08:26:04.460Z,17.87
2019-05-29T08:28:36.410Z,18.01
2019-05-29T08:31:08.410Z,18.28
2019-05-29T08:33:40.805Z,18.13
2019-05-29T08:36:12.916Z,18.00
2019-05-29T08:38:45.798Z,17.98
2019-05-29T08:41:17.951Z,17.75
2019-05-29T08:43:50.785Z,17.84
2019-05-29T08:46:22.891Z,17.92
2019-05-29T08:48:54.869Z,18.00
2019-05-29T08:51:26.910Z,18.08
2019-05-29T08:53:58.871Z,17.86
2019-05-29T08:56:30.879Z,17.66
2019-05-29T08:59:02.955Z,17.60
2019-05-29T09:01:34.966Z,17.51
2019-05-29T09:04:06.998Z,17.37
2019-05-29T09:06:39.121Z,17.26
2019-05-29T09:09:11.103Z,17.09
2019-05-29T09:11:43.108Z,17.05
2019-05-29T09:14:15.082Z,16.97
2019-05-29T09:16:47.044Z,16.93
2019-05-29T09:19:21.099Z,16.79
2019-05-29T09:21:52.907Z,16.76
2019-05-29T09:24:24.879Z,16.85
2019-05-29T09:26:56.883Z,16.99
2019-05-29T09:29:28.867Z,17.06
2019-05-29T09:32:00.831Z,17.00
2019-05-29T09:34:32.808Z,17.01
2019-05-29T09:37:04.792Z,17.10
2019-05-29T09:39:36.766Z,17.14
2019-05-29T09:42:08.739Z,17.05
2019-05-29T09:44:40.709Z,17.06
2019-05-29T09:47:12.655Z,16.99
2019-05-29T09:49:44.657Z,17.14
2019-05-29T09:52:16.625Z,17.34
2019-05-29T09:54:48.638Z,17.66
2019-05-29T09:57:20.616Z,17.73
2019-05-29T09:59:53.786Z,17.88
2019-05-29T10:02:26.397Z,18.10
2019-05-29T10:05:00.491Z,18.30
2019-05-29T10:07:32.259Z,18.34
2019-05-29T10:10:05.303Z,18.41
2019-05-29T10:12:37.312Z,18.37
2019-05-29T10:15:09.738Z,18.41
2019-05-29T10:17:41.727Z,18.38
2019-05-29T10:20:14.526Z,18.49
2019-05-29T10:22:46.462Z,18.65
2019-05-29T10:25:18.537Z,18.80
2019-05-29T10:27:50.486Z,18.83
2019-05-29T10:30:24.297Z,18.85
2019-05-29T10:32:56.284Z,18.88
2019-05-29T10:35:28.292Z,18.79
2019-05-29T10:38:00.270Z,18.77
2019-05-29T10:40:32.290Z,18.86
2019-05-29T10:43:04.297Z,18.95
2019-05-29T10:45:36.372Z,19.06
2019-05-29T10:48:08.359Z,19.28
2019-05-29T10:50:40.400Z,19.35
2019-05-29T10:53:12.382Z,19.64
2019-05-29T10:55:44.495Z,19.77
2019-05-29T10:58:16.455Z,19.92
2019-05-29T11:00:49.125Z,19.97
2019-05-29T11:03:21.112Z,20.19
2019-05-29T11:05:53.782Z,20.14
2019-05-29T11:08:25.780Z,20.18
2019-05-29T11:10:57.785Z,20.29
2019-05-29T11:13:29.735Z,19.95
2019-05-29T11:16:01.720Z,19.74
2019-05-29T11:18:33.763Z,19.69
2019-05-29T11:21:05.949Z,19.69
2019-05-29T11:23:37.978Z,19.87
2019-05-29T11:26:10.097Z,19.61
2019-05-29T11:28:42.083Z,19.77
2019-05-29T11:31:14.206Z,19.95
2019-05-29T11:33:46.255Z,20.00
2019-05-29T11:36:18.443Z,20.04
2019-05-29T11:38:50.577Z,19.92
2019-05-29T11:41:26.233Z,19.93
2019-05-29T11:43:56.867Z,19.89
2019-05-29T11:46:28.945Z,19.86
2019-05-29T11:49:00.943Z,19.88
2019-05-29T11:51:33.092Z,20.09
2019-05-29T11:54:05.081Z,19.88
2019-05-29T11:56:37.075Z,19.92
2019-05-29T11:59:09.072Z,19.94
2019-05-29T12:01:50.173Z,19.94
2019-05-29T12:04:25.401Z,19.77
2019-05-29T12:06:48.839Z,19.82
2019-05-29T12:09:32.316Z,19.89
2019-05-29T12:11:55.982Z,19.70
2019-05-29T12:14:28.287Z,19.88
2019-05-29T12:17:00.640Z,19.83
2019-05-29T12:19:32.811Z,19.91
2019-05-29T12:22:04.788Z,19.72
2019-05-29T12:24:36.758Z,19.95
2019-05-29T12:27:08.759Z,19.94
2019-05-29T12:29:40.788Z,20.14
2019-05-29T12:32:13.044Z,20.12
2019-05-29T12:34:53.729Z,20.02
2019-05-29T12:37:19.134Z,20.05
2019-05-29T12:39:51.202Z,19.96
2019-05-29T12:42:23.175Z,19.96
2019-05-29T12:44:55.462Z,19.92
2019-05-29T12:47:27.794Z,19.90
2019-05-29T12:50:00.642Z,19.48
2019-05-29T12:52:33.710Z,19.18
2019-05-29T12:55:05.893Z,18.95
2019-05-29T12:57:37.888Z,18.61
2019-05-29T13:00:11.363Z,18.09
2019-05-29T13:02:43.387Z,17.89
2019-05-29T13:05:20.097Z,17.79
2019-05-29T13:07:49.485Z,17.54
2019-05-29T13:10:30.678Z,17.46
2019-05-29T13:13:02.421Z,17.02
2019-05-29T13:15:29.867Z,17.13
2019-05-29T13:18:06.254Z,16.98
2019-05-29T13:20:35.765Z,17.01
2019-05-29T13:23:08.589Z,16.99
2019-05-29T13:25:40.578Z,17.04
2019-05-29T13:28:12.604Z,17.25
2019-05-29T13:30:44.640Z,16.99
2019-05-29T13:33:16.689Z,17.29
2019-05-29T13:35:48.667Z,17.34
2019-05-29T13:38:20.635Z,17.45
2019-05-29T13:40:52.665Z,17.64
2019-05-29T13:43:24.674Z,17.64
2019-05-29T13:45:56.718Z,17.51
2019-05-29T13:48:28.718Z,17.31
2019-05-29T13:51:01.695Z,17.43
2019-05-29T13:53:33.795Z,17.48
2019-05-29T13:56:06.201Z,17.42
2019-05-29T13:58:38.260Z,17.25
2019-05-29T14:01:10.265Z,17.28
2019-05-29T14:03:42.251Z,17.02
2019-05-29T14:06:14.260Z,17.01
2019-05-29T14:08:46.283Z,17.04
2019-05-29T14:11:18.284Z,16.84
2019-05-29T14:13:50.311Z,16.72
2019-05-29T14:16:25.406Z,16.35
2019-05-29T14:18:57.433Z,16.26
2019-05-29T14:21:29.473Z,15.99
2019-05-29T14:24:02.791Z,15.85
2019-05-29T14:26:35.397Z,15.79
2019-05-29T14:29:07.611Z,15.71
2019-05-29T14:31:39.846Z,15.65
2019-05-29T14:34:11.833Z,15.67
2019-05-29T14:36:43.967Z,15.65
2019-05-29T14:39:16.024Z,15.67
2019-05-29T14:41:48.011Z,15.66
2019-05-29T14:44:20.008Z,15.63
2019-05-29T14:46:52.021Z,15.63
2019-05-29T14:49:26.939Z,15.60
2019-05-29T14:51:59.203Z,15.57
2019-05-29T14:54:41.403Z,15.59
2019-05-29T14:57:17.474Z,15.58
2019-05-29T14:59:39.135Z,15.69
2019-05-29T15:02:19.856Z,15.70
2019-05-29T15:04:45.003Z,15.75
2019-05-29T15:07:17.006Z,15.75
2019-05-29T15:09:49.110Z,15.73
2019-05-29T15:12:21.099Z,15.74
2019-05-29T15:14:53.182Z,15.69
2019-05-29T15:17:25.175Z,15.65
2019-05-29T15:19:57.204Z,15.60
2019-05-29T15:22:29.190Z,15.59
2019-05-29T15:25:11.507Z,15.64
2019-05-29T15:27:35.107Z,15.58
2019-05-29T15:30:08.756Z,15.55
2019-05-29T15:32:41.231Z,15.53
2019-05-29T15:35:17.613Z,15.46
2019-05-29T15:37:47.524Z,15.48
2019-05-29T15:40:19.549Z,15.48
2019-05-29T15:42:51.586Z,15.57
2019-05-29T15:45:23.723Z,15.51
2019-05-29T15:47:55.729Z,15.61
2019-05-29T15:50:27.747Z,15.67
2019-05-29T15:52:59.789Z,15.71
2019-05-29T15:55:34.744Z,15.70
2019-05-29T15:58:07.128Z,15.71
2019-05-29T16:00:39.407Z,15.82
2019-05-29T16:03:11.568Z,15.69
2019-05-29T16:05:43.642Z,15.60
2019-05-29T16:08:16.095Z,15.59
2019-05-29T16:10:48.273Z,15.52
2019-05-29T16:13:20.280Z,15.45
2019-05-29T16:15:52.306Z,15.37
2019-05-29T16:18:29.217Z,15.36
2019-05-29T16:20:58.279Z,15.30
2019-05-29T16:23:35.896Z,15.25
2019-05-29T16:26:04.242Z,15.21
2019-05-29T16:28:36.396Z,15.19
2019-05-29T16:31:08.468Z,15.10
2019-05-29T16:33:40.500Z,15.15
2019-05-29T16:36:12.690Z,15.16
2019-05-29T16:38:44.734Z,15.18
2019-05-29T16:41:17.935Z,15.22
2019-05-29T16:43:50.085Z,15.28
2019-05-29T16:46:24.060Z,15.35
2019-05-29T16:48:55.984Z,15.35
2019-05-29T16:51:28.138Z,15.39
2019-05-29T16:54:00.137Z,15.36
2019-05-29T16:56:32.185Z,15.29
2019-05-29T16:59:04.200Z,15.28
2019-05-29T17:01:36.226Z,15.27
2019-05-29T17:04:08.241Z,15.22
2019-05-29T17:06:40.245Z,15.24
2019-05-29T17:09:12.236Z,15.25
2019-05-29T17:11:44.261Z,15.23
2019-05-29T17:14:16.492Z,15.21
2019-05-29T17:16:48.585Z,15.24
2019-05-29T17:19:20.737Z,15.26
2019-05-29T17:21:52.752Z,15.25
2019-05-29T17:24:25.104Z,15.25
2019-05-29T17:26:57.189Z,15.23
2019-05-29T17:29:29.204Z,15.23
2019-05-29T17:32:01.441Z,15.27
2019-05-29T17:34:33.700Z,15.30
2019-05-29T17:37:05.795Z,15.33
2019-05-29T17:39:37.754Z,15.25
2019-05-29T17:42:09.795Z,15.25
2019-05-29T17:44:41.792Z,15.24
2019-05-29T17:47:13.789Z,15.27
2019-05-29T17:49:45.790Z,15.26
2019-05-29T17:52:17.847Z,15.25
2019-05-29T17:54:49.827Z,15.24
2019-05-29T17:57:22.068Z,15.24
2019-05-29T17:59:54.200Z,15.23
2019-05-29T18:02:26.425Z,15.19
2019-05-29T18:04:58.435Z,15.20
2019-05-29T18:07:30.503Z,15.16
2019-05-29T18:10:02.648Z,15.17
2019-05-29T18:12:34.680Z,15.14
2019-05-29T18:15:07.429Z,15.13
2019-05-29T18:17:39.490Z,15.10
2019-05-29T18:20:14.510Z,15.13
2019-05-29T18:22:45.433Z,15.07
2019-05-29T18:25:18.154Z,15.03
2019-05-29T18:27:50.242Z,15.03
2019-05-29T18:30:24.378Z,15.04
2019-05-29T18:32:56.604Z,15.00
2019-05-29T18:35:29.064Z,15.03
2019-05-29T18:38:01.221Z,14.99
2019-05-29T18:40:33.240Z,14.99
2019-05-29T18:43:05.340Z,14.99
2019-05-29T18:45:37.417Z,14.96
2019-05-29T18:48:09.481Z,14.96
2019-05-29T18:50:44.241Z,14.88
2019-05-29T18:53:15.545Z,14.85
2019-05-29T18:55:47.585Z,14.82
2019-05-29T18:58:19.686Z,14.78
2019-05-29T19:00:51.749Z,14.74
2019-05-29T19:03:23.796Z,14.69
2019-05-29T19:05:55.814Z,14.62
2019-05-29T19:08:27.876Z,14.52
2019-05-29T19:10:59.932Z,14.45
2019-05-29T19:13:32.136Z,14.47
2019-05-29T19:16:04.528Z,14.36
2019-05-29T19:18:36.548Z,14.31
2019-05-29T19:21:08.610Z,14.28
2019-05-29T19:23:40.636Z,14.21
2019-05-29T19:26:12.721Z,14.17
2019-05-29T19:28:44.786Z,14.12
2019-05-29T19:31:16.851Z,14.02
2019-05-29T19:33:48.849Z,13.97
2019-05-29T19:36:20.927Z,13.97
2019-05-29T19:38:53.013Z,13.85
2019-05-29T19:41:25.765Z,13.79
2019-05-29T19:43:57.861Z,13.69
2019-05-29T19:46:31.074Z,13.69
2019-05-29T19:49:03.673Z,13.62
2019-05-29T19:51:35.833Z,13.64
2019-05-29T19:54:07.813Z,13.54
2019-05-29T19:56:39.835Z,13.49
2019-05-29T19:59:11.859Z,13.61
2019-05-29T20:01:43.902Z,13.45
2019-05-29T20:04:15.930Z,13.39
2019-05-29T20:06:48.000Z,13.30
2019-05-29T20:09:19.995Z,13.29
2019-05-29T20:11:52.054Z,13.28
2019-05-29T20:14:24.084Z,13.25
2019-05-29T20:16:56.233Z,13.21
2019-05-29T20:19:30.392Z,13.28
2019-05-29T20:22:02.294Z,13.29
2019-05-29T20:24:34.982Z,13.29
2019-05-29T20:27:07.050Z,13.37
2019-05-29T20:29:39.107Z,13.35
2019-05-29T20:32:11.135Z,13.42
2019-05-29T20:34:43.525Z,13.35
2019-05-29T20:37:15.631Z,13.37
2019-05-29T20:39:47.651Z,13.31
2019-05-29T20:42:19.671Z,13.29
2019-05-29T20:44:51.741Z,13.27
2019-05-29T20:47:23.854Z,13.27
2019-05-29T20:49:56.380Z,13.23
2019-05-29T20:52:28.415Z,13.24
2019-05-29T20:55:00.471Z,13.20
2019-05-29T20:57:33.778Z,13.23
2019-05-29T21:00:07.425Z,13.15
2019-05-29T21:02:40.432Z,13.14
2019-05-29T21:05:12.799Z,13.07
2019-05-29T21:07:44.899Z,13.01
2019-05-29T21:10:18.501Z,12.98
2019-05-29T21:12:50.624Z,12.97
2019-05-29T21:15:22.641Z,12.95
2019-05-29T21:17:54.688Z,12.89
2019-05-29T21:20:29.095Z,12.91
2019-05-29T21:23:00.611Z,12.90
2019-05-29T21:25:32.711Z,12.90
2019-05-29T21:28:05.321Z,12.91
2019-05-29T21:30:37.527Z,12.83
2019-05-29T21:33:12.500Z,12.81
2019-05-29T21:35:44.598Z,12.78
2019-05-29T21:38:16.658Z,12.80
2019-05-29T21:40:48.680Z,12.77
2019-05-29T21:43:20.691Z,12.79
2019-05-29T21:45:52.722Z,12.80
2019-05-29T21:48:24.777Z,12.66
2019-05-29T21:50:56.832Z,12.54
2019-05-29T21:53:28.851Z,12.60
2019-05-29T21:56:00.835Z,12.61
2019-05-29T21:58:32.872Z,12.55
2019-05-29T22:01:04.894Z,12.60
2019-05-29T22:03:38.246Z,12.62
2019-05-29T22:06:10.432Z,12.64
2019-05-29T22:08:42.841Z,12.63
2019-05-29T22:11:15.146Z,12.57
2019-05-29T22:13:47.108Z,12.59
2019-05-29T22:16:19.154Z,12.48
2019-05-29T22:18:51.119Z,12.46
2019-05-29T22:21:23.139Z,12.31
2019-05-29T22:23:55.176Z,12.23
2019-05-29T22:26:27.080Z,12.18
2019-05-29T22:29:16.699Z,12.22
2019-05-29T22:31:32.980Z,12.21
2019-05-29T22:34:04.982Z,12.23
2019-05-29T22:36:36.986Z,12.25
2019-05-29T22:39:08.970Z,12.34
2019-05-29T22:41:40.964Z,12.31
2019-05-29T22:44:12.952Z,12.34
2019-05-29T22:46:44.937Z,11.97
2019-05-29T22:49:16.927Z,11.88
2019-05-29T22:51:48.930Z,11.80
2019-05-29T22:54:20.910Z,11.43
2019-05-29T22:56:53.985Z,11.48
2019-05-29T22:59:31.804Z,11.44
2019-05-29T23:02:00.340Z,11.39
2019-05-29T23:04:32.440Z,11.34
2019-05-29T23:07:04.467Z,11.33
2019-05-29T23:09:36.435Z,11.21
2019-05-29T23:12:08.419Z,11.26
2019-05-29T23:14:40.353Z,11.25
2019-05-29T23:17:12.335Z,11.17
2019-05-29T23:19:44.303Z,11.25
2019-05-29T23:22:16.303Z,11.30
2019-05-29T23:24:48.273Z,11.30
2019-05-29T23:27:20.235Z,11.25
2019-05-29T23:29:52.704Z,11.39
2019-05-29T23:32:24.836Z,11.48
2019-05-29T23:34:57.149Z,11.43
2019-05-29T23:37:29.186Z,11.50
2019-05-29T23:40:01.323Z,11.27
2019-05-29T23:42:33.361Z,11.23
2019-05-29T23:45:05.582Z,11.23
2019-05-29T23:47:37.574Z,11.40
2019-05-29T23:50:09.846Z,11.33
2019-05-29T23:52:41.850Z,11.24
2019-05-29T23:55:13.857Z,11.22
2019-05-29T23:57:45.851Z,10.98
